sensor_id;sensor_type;location;lat;lon;timestamp;P1;durP1;ratioP1;P2;durP2;ratioP2
22030;SDS011;11179;52.106;21.024;2023-09-12T00:02:11;28.07;;;16.40;;
22030;SDS011;11179;52.106;21.024;2023-09-12T00:04:52;37.80;;;17.93;;
22030;SDS011;11179;52.106;21.024;2023-09-12T00:07:19;31.73;;;17.37;;
22030;SDS011;11179;52.106;21.024;2023-09-12T00:09:54;29.70;;;19.60;;
22030;SDS011;11179;52.106;21.024;2023-09-12T00:12:23;36.83;;;19.13;;
22030;SDS011;11179;52.106;21.024;2023-09-12T00:14:56;28.73;;;17.00;;
22030;SDS011;11179;52.106;21.024;2023-09-12T00:17:47;31.90;;;18.73;;
22030;SDS011;11179;52.106;21.024;2023-09-12T00:20:16;26.47;;;16.97;;
22030;SDS011;11179;52.106;21.024;2023-09-12T00:22:42;27.77;;;17.73;;
22030;SDS011;11179;52.106;21.024;2023-09-12T00:25:15;28.77;;;18.20;;
22030;SDS011;11179;52.106;21.024;2023-09-12T00:27:50;31.17;;;17.93;;
22030;SDS011;11179;52.106;21.024;2023-09-12T00:30:19;32.80;;;17.13;;
22030;SDS011;11179;52.106;21.024;2023-09-12T00:32:53;28.70;;;17.77;;
22030;SDS011;11179;52.106;21.024;2023-09-12T00:35:22;29.77;;;18.57;;
22030;SDS011;11179;52.106;21.024;2023-09-12T00:37:47;29.33;;;18.67;;
22030;SDS011;11179;52.106;21.024;2023-09-12T00:40:20;29.00;;;18.83;;
22030;SDS011;11179;52.106;21.024;2023-09-12T00:43:01;29.30;;;18.63;;
22030;SDS011;11179;52.106;21.024;2023-09-12T00:45:33;34.40;;;19.77;;
22030;SDS011;11179;52.106;21.024;2023-09-12T00:47:59;30.23;;;19.37;;
22030;SDS011;11179;52.106;21.024;2023-09-12T00:50:35;30.33;;;19.03;;
22030;SDS011;11179;52.106;21.024;2023-09-12T00:53:14;34.53;;;18.90;;
22030;SDS011;11179;52.106;21.024;2023-09-12T00:55:54;34.10;;;19.20;;
22030;SDS011;11179;52.106;21.024;2023-09-12T00:58:25;35.80;;;18.50;;
22030;SDS011;11179;52.106;21.024;2023-09-12T01:01:00;32.97;;;19.97;;
22030;SDS011;11179;52.106;21.024;2023-09-12T01:03:30;31.33;;;19.00;;
22030;SDS011;11179;52.106;21.024;2023-09-12T01:05:57;39.60;;;19.23;;
22030;SDS011;11179;52.106;21.024;2023-09-12T01:08:36;31.70;;;18.13;;
22030;SDS011;11179;52.106;21.024;2023-09-12T01:11:04;37.43;;;19.70;;
22030;SDS011;11179;52.106;21.024;2023-09-12T01:13:35;33.90;;;18.23;;
22030;SDS011;11179;52.106;21.024;2023-09-12T01:16:08;33.83;;;19.03;;
22030;SDS011;11179;52.106;21.024;2023-09-12T01:18:42;30.00;;;19.00;;
22030;SDS011;11179;52.106;21.024;2023-09-12T01:29:51;33.63;;;19.03;;
22030;SDS011;11179;52.106;21.024;2023-09-12T01:32:32;33.70;;;20.00;;
22030;SDS011;11179;52.106;21.024;2023-09-12T01:35:08;32.77;;;19.23;;
22030;SDS011;11179;52.106;21.024;2023-09-12T01:37:48;30.80;;;18.97;;
22030;SDS011;11179;52.106;21.024;2023-09-12T01:40:21;35.60;;;20.10;;
22030;SDS011;11179;52.106;21.024;2023-09-12T01:43:06;31.90;;;18.90;;
22030;SDS011;11179;52.106;21.024;2023-09-12T01:45:35;35.93;;;19.33;;
22030;SDS011;11179;52.106;21.024;2023-09-12T01:48:08;35.43;;;20.57;;
22030;SDS011;11179;52.106;21.024;2023-09-12T01:51:03;37.87;;;19.70;;
22030;SDS011;11179;52.106;21.024;2023-09-12T01:53:45;33.23;;;18.77;;
22030;SDS011;11179;52.106;21.024;2023-09-12T02:00:03;28.57;;;18.40;;
22030;SDS011;11179;52.106;21.024;2023-09-12T02:02:44;45.90;;;21.90;;
22030;SDS011;11179;52.106;21.024;2023-09-12T02:05:27;29.57;;;18.60;;
22030;SDS011;11179;52.106;21.024;2023-09-12T02:11:46;41.70;;;21.43;;
22030;SDS011;11179;52.106;21.024;2023-09-12T02:14:54;33.63;;;19.67;;
22030;SDS011;11179;52.106;21.024;2023-09-12T02:17:43;30.90;;;19.73;;
22030;SDS011;11179;52.106;21.024;2023-09-12T02:20:31;43.17;;;21.10;;
22030;SDS011;11179;52.106;21.024;2023-09-12T02:23:42;34.87;;;20.33;;
22030;SDS011;11179;52.106;21.024;2023-09-12T02:26:30;36.27;;;21.33;;
22030;SDS011;11179;52.106;21.024;2023-09-12T02:29:38;34.20;;;20.70;;
22030;SDS011;11179;52.106;21.024;2023-09-12T02:35:18;35.23;;;20.90;;
22030;SDS011;11179;52.106;21.024;2023-09-12T02:41:11;31.00;;;19.37;;
22030;SDS011;11179;52.106;21.024;2023-09-12T02:43:47;28.93;;;19.03;;
22030;SDS011;11179;52.106;21.024;2023-09-12T02:46:29;33.03;;;19.03;;
22030;SDS011;11179;52.106;21.024;2023-09-12T02:49:06;36.23;;;21.47;;
22030;SDS011;11179;52.106;21.024;2023-09-12T02:51:37;32.83;;;19.80;;
22030;SDS011;11179;52.106;21.024;2023-09-12T02:57:40;33.73;;;19.87;;
22030;SDS011;11179;52.106;21.024;2023-09-12T03:04:30;35.70;;;19.30;;
22030;SDS011;11179;52.106;21.024;2023-09-12T03:07:12;33.57;;;21.03;;
22030;SDS011;11179;52.106;21.024;2023-09-12T03:10:23;36.43;;;19.70;;
22030;SDS011;11179;52.106;21.024;2023-09-12T03:13:16;36.10;;;21.53;;
22030;SDS011;11179;52.106;21.024;2023-09-12T03:16:21;30.40;;;17.37;;
22030;SDS011;11179;52.106;21.024;2023-09-12T03:19:03;32.20;;;19.03;;
22030;SDS011;11179;52.106;21.024;2023-09-12T03:21:37;33.77;;;19.70;;
22030;SDS011;11179;52.106;21.024;2023-09-12T03:27:27;35.00;;;20.63;;
22030;SDS011;11179;52.106;21.024;2023-09-12T03:30:00;32.47;;;19.33;;
22030;SDS011;11179;52.106;21.024;2023-09-12T03:32:29;34.40;;;20.50;;
22030;SDS011;11179;52.106;21.024;2023-09-12T03:35:16;32.17;;;18.73;;
22030;SDS011;11179;52.106;21.024;2023-09-12T03:37:44;32.20;;;19.30;;
22030;SDS011;11179;52.106;21.024;2023-09-12T03:40:25;35.30;;;19.10;;
22030;SDS011;11179;52.106;21.024;2023-09-12T03:43:08;32.03;;;18.10;;
22030;SDS011;11179;52.106;21.024;2023-09-12T03:45:40;31.20;;;19.47;;
22030;SDS011;11179;52.106;21.024;2023-09-12T03:54:20;35.80;;;21.33;;
22030;SDS011;11179;52.106;21.024;2023-09-12T03:56:58;35.17;;;19.23;;
22030;SDS011;11179;52.106;21.024;2023-09-12T03:59:34;38.47;;;21.50;;
22030;SDS011;11179;52.106;21.024;2023-09-12T04:02:02;34.67;;;20.90;;
22030;SDS011;11179;52.106;21.024;2023-09-12T04:05:14;34.00;;;20.53;;
22030;SDS011;11179;52.106;21.024;2023-09-12T04:07:43;38.67;;;21.57;;
22030;SDS011;11179;52.106;21.024;2023-09-12T04:10:52;35.13;;;20.50;;
22030;SDS011;11179;52.106;21.024;2023-09-12T04:13:30;34.13;;;20.00;;
22030;SDS011;11179;52.106;21.024;2023-09-12T04:19:36;39.33;;;19.57;;
22030;SDS011;11179;52.106;21.024;2023-09-12T04:25:29;37.60;;;21.47;;
22030;SDS011;11179;52.106;21.024;2023-09-12T04:28:13;45.00;;;22.97;;
22030;SDS011;11179;52.106;21.024;2023-09-12T04:30:48;33.83;;;20.33;;
22030;SDS011;11179;52.106;21.024;2023-09-12T04:36:54;36.40;;;20.73;;
22030;SDS011;11179;52.106;21.024;2023-09-12T04:39:43;35.40;;;21.80;;
22030;SDS011;11179;52.106;21.024;2023-09-12T04:42:37;35.10;;;22.13;;
22030;SDS011;11179;52.106;21.024;2023-09-12T04:48:05;38.20;;;20.40;;
22030;SDS011;11179;52.106;21.024;2023-09-12T04:50:34;35.30;;;20.47;;
22030;SDS011;11179;52.106;21.024;2023-09-12T04:53:29;36.73;;;20.60;;
22030;SDS011;11179;52.106;21.024;2023-09-12T04:56:45;30.97;;;19.70;;
22030;SDS011;11179;52.106;21.024;2023-09-12T05:02:21;32.87;;;20.27;;
22030;SDS011;11179;52.106;21.024;2023-09-12T05:04:59;34.53;;;20.80;;
22030;SDS011;11179;52.106;21.024;2023-09-12T05:07:26;32.97;;;19.80;;
22030;SDS011;11179;52.106;21.024;2023-09-12T05:10:05;32.73;;;20.33;;
22030;SDS011;11179;52.106;21.024;2023-09-12T05:12:41;42.20;;;20.13;;
22030;SDS011;11179;52.106;21.024;2023-09-12T05:15:41;37.20;;;20.07;;
22030;SDS011;11179;52.106;21.024;2023-09-12T05:19:06;36.43;;;19.90;;
22030;SDS011;11179;52.106;21.024;2023-09-12T05:21:43;37.03;;;20.53;;
22030;SDS011;11179;52.106;21.024;2023-09-12T05:24:33;34.97;;;19.43;;
22030;SDS011;11179;52.106;21.024;2023-09-12T05:27:17;42.37;;;22.73;;
22030;SDS011;11179;52.106;21.024;2023-09-12T05:30:25;38.83;;;20.60;;
22030;SDS011;11179;52.106;21.024;2023-09-12T05:33:08;36.30;;;20.77;;
22030;SDS011;11179;52.106;21.024;2023-09-12T05:36:03;36.03;;;20.20;;
22030;SDS011;11179;52.106;21.024;2023-09-12T05:38:41;44.57;;;21.60;;
22030;SDS011;11179;52.106;21.024;2023-09-12T05:41:16;47.80;;;21.30;;
22030;SDS011;11179;52.106;21.024;2023-09-12T05:43:52;39.90;;;20.83;;
22030;SDS011;11179;52.106;21.024;2023-09-12T05:46:51;35.17;;;19.50;;
22030;SDS011;11179;52.106;21.024;2023-09-12T05:49:20;37.20;;;21.00;;
22030;SDS011;11179;52.106;21.024;2023-09-12T05:52:01;40.67;;;20.80;;
22030;SDS011;11179;52.106;21.024;2023-09-12T06:01:18;41.27;;;21.03;;
22030;SDS011;11179;52.106;21.024;2023-09-12T06:04:21;45.90;;;20.10;;
22030;SDS011;11179;52.106;21.024;2023-09-12T06:07:16;36.40;;;20.27;;
22030;SDS011;11179;52.106;21.024;2023-09-12T06:10:16;36.20;;;19.67;;
22030;SDS011;11179;52.106;21.024;2023-09-12T06:12:51;35.83;;;19.67;;
22030;SDS011;11179;52.106;21.024;2023-09-12T06:19:28;45.90;;;20.37;;
22030;SDS011;11179;52.106;21.024;2023-09-12T06:22:01;45.23;;;19.27;;
22030;SDS011;11179;52.106;21.024;2023-09-12T06:24:43;41.83;;;18.60;;
22030;SDS011;11179;52.106;21.024;2023-09-12T06:30:39;32.93;;;17.77;;
22030;SDS011;11179;52.106;21.024;2023-09-12T06:33:42;30.00;;;17.73;;
22030;SDS011;11179;52.106;21.024;2023-09-12T06:40:19;29.53;;;17.70;;
22030;SDS011;11179;52.106;21.024;2023-09-12T06:46:46;29.20;;;17.53;;
22030;SDS011;11179;52.106;21.024;2023-09-12T06:49:59;25.60;;;16.30;;
22030;SDS011;11179;52.106;21.024;2023-09-12T06:55:43;34.23;;;16.93;;
22030;SDS011;11179;52.106;21.024;2023-09-12T06:58:42;31.03;;;16.90;;
22030;SDS011;11179;52.106;21.024;2023-09-12T07:05:03;26.50;;;16.77;;
22030;SDS011;11179;52.106;21.024;2023-09-12T07:07:48;30.60;;;16.33;;
22030;SDS011;11179;52.106;21.024;2023-09-12T07:10:19;26.93;;;15.87;;
22030;SDS011;11179;52.106;21.024;2023-09-12T07:12:47;28.23;;;16.10;;
22030;SDS011;11179;52.106;21.024;2023-09-12T07:15:25;29.13;;;15.47;;
22030;SDS011;11179;52.106;21.024;2023-09-12T07:17:57;29.73;;;15.90;;
22030;SDS011;11179;52.106;21.024;2023-09-12T07:20:32;22.83;;;13.60;;
22030;SDS011;11179;52.106;21.024;2023-09-12T07:23:14;23.90;;;14.50;;
22030;SDS011;11179;52.106;21.024;2023-09-12T07:25:56;24.13;;;14.13;;
22030;SDS011;11179;52.106;21.024;2023-09-12T07:28:37;25.03;;;13.73;;
22030;SDS011;11179;52.106;21.024;2023-09-12T07:31:31;28.43;;;14.57;;
22030;SDS011;11179;52.106;21.024;2023-09-12T07:34:03;25.83;;;13.70;;
22030;SDS011;11179;52.106;21.024;2023-09-12T07:36:47;22.80;;;13.60;;
22030;SDS011;11179;52.106;21.024;2023-09-12T07:39:25;24.67;;;14.00;;
22030;SDS011;11179;52.106;21.024;2023-09-12T07:41:54;21.03;;;12.90;;
22030;SDS011;11179;52.106;21.024;2023-09-12T07:44:45;25.57;;;13.50;;
22030;SDS011;11179;52.106;21.024;2023-09-12T07:50:35;23.90;;;13.30;;
22030;SDS011;11179;52.106;21.024;2023-09-12T07:53:06;27.13;;;13.60;;
22030;SDS011;11179;52.106;21.024;2023-09-12T07:55:38;18.90;;;12.50;;
22030;SDS011;11179;52.106;21.024;2023-09-12T07:58:35;22.53;;;13.33;;
22030;SDS011;11179;52.106;21.024;2023-09-12T08:01:15;23.00;;;14.90;;
22030;SDS011;11179;52.106;21.024;2023-09-12T08:03:53;23.33;;;12.47;;
22030;SDS011;11179;52.106;21.024;2023-09-12T08:06:18;28.50;;;13.17;;
22030;SDS011;11179;52.106;21.024;2023-09-12T08:08:43;35.37;;;14.47;;
22030;SDS011;11179;52.106;21.024;2023-09-12T08:11:08;23.27;;;11.83;;
22030;SDS011;11179;52.106;21.024;2023-09-12T08:13:36;26.50;;;12.57;;
22030;SDS011;11179;52.106;21.024;2023-09-12T08:16:15;23.20;;;11.70;;
22030;SDS011;11179;52.106;21.024;2023-09-12T08:18:57;25.63;;;12.63;;
22030;SDS011;11179;52.106;21.024;2023-09-12T08:21:26;23.00;;;12.13;;
22030;SDS011;11179;52.106;21.024;2023-09-12T08:23:57;22.87;;;12.30;;
22030;SDS011;11179;52.106;21.024;2023-09-12T08:26:42;28.27;;;11.90;;
22030;SDS011;11179;52.106;21.024;2023-09-12T08:29:09;21.53;;;12.33;;
22030;SDS011;11179;52.106;21.024;2023-09-12T08:31:44;22.37;;;13.17;;
22030;SDS011;11179;52.106;21.024;2023-09-12T08:34:29;21.80;;;12.57;;
22030;SDS011;11179;52.106;21.024;2023-09-12T08:37:14;22.27;;;13.90;;
22030;SDS011;11179;52.106;21.024;2023-09-12T08:39:41;31.10;;;13.77;;
22030;SDS011;11179;52.106;21.024;2023-09-12T08:42:24;29.43;;;13.60;;
22030;SDS011;11179;52.106;21.024;2023-09-12T08:47:53;28.97;;;13.37;;
22030;SDS011;11179;52.106;21.024;2023-09-12T08:50:40;33.57;;;11.17;;
22030;SDS011;11179;52.106;21.024;2023-09-12T08:53:14;27.07;;;12.63;;
22030;SDS011;11179;52.106;21.024;2023-09-12T08:55:52;31.80;;;12.50;;
22030;SDS011;11179;52.106;21.024;2023-09-12T08:58:40;44.67;;;11.50;;
22030;SDS011;11179;52.106;21.024;2023-09-12T09:04:18;18.97;;;12.00;;
22030;SDS011;11179;52.106;21.024;2023-09-12T09:06:50;19.10;;;11.60;;
22030;SDS011;11179;52.106;21.024;2023-09-12T09:09:35;21.37;;;11.33;;
22030;SDS011;11179;52.106;21.024;2023-09-12T09:12:19;18.90;;;11.40;;
22030;SDS011;11179;52.106;21.024;2023-09-12T09:14:53;22.93;;;12.83;;
22030;SDS011;11179;52.106;21.024;2023-09-12T09:17:52;35.20;;;13.40;;
22030;SDS011;11179;52.106;21.024;2023-09-12T09:20:26;34.90;;;12.63;;
22030;SDS011;11179;52.106;21.024;2023-09-12T09:23:06;24.40;;;10.93;;
22030;SDS011;11179;52.106;21.024;2023-09-12T09:25:36;26.93;;;10.30;;
22030;SDS011;11179;52.106;21.024;2023-09-12T09:28:18;22.50;;;10.50;;
22030;SDS011;11179;52.106;21.024;2023-09-12T09:30:53;17.17;;;9.77;;
22030;SDS011;11179;52.106;21.024;2023-09-12T09:33:24;16.70;;;9.47;;
22030;SDS011;11179;52.106;21.024;2023-09-12T09:36:19;25.83;;;9.93;;
22030;SDS011;11179;52.106;21.024;2023-09-12T09:38:48;18.60;;;9.80;;
22030;SDS011;11179;52.106;21.024;2023-09-12T09:41:19;21.10;;;10.03;;
22030;SDS011;11179;52.106;21.024;2023-09-12T09:43:59;51.63;;;12.50;;
22030;SDS011;11179;52.106;21.024;2023-09-12T09:46:50;18.23;;;9.10;;
22030;SDS011;11179;52.106;21.024;2023-09-12T09:49:22;14.00;;;9.53;;
22030;SDS011;11179;52.106;21.024;2023-09-12T09:51:49;14.07;;;9.30;;
22030;SDS011;11179;52.106;21.024;2023-09-12T09:54:15;19.63;;;10.20;;
22030;SDS011;11179;52.106;21.024;2023-09-12T09:56:58;23.00;;;10.37;;
22030;SDS011;11179;52.106;21.024;2023-09-12T09:59:27;24.77;;;11.10;;
22030;SDS011;11179;52.106;21.024;2023-09-12T10:01:57;20.03;;;10.30;;
22030;SDS011;11179;52.106;21.024;2023-09-12T10:04:28;21.60;;;10.23;;
22030;SDS011;11179;52.106;21.024;2023-09-12T10:07:12;17.37;;;10.30;;
22030;SDS011;11179;52.106;21.024;2023-09-12T10:12:35;14.43;;;9.23;;
22030;SDS011;11179;52.106;21.024;2023-09-12T10:15:09;18.00;;;9.97;;
22030;SDS011;11179;52.106;21.024;2023-09-12T10:17:43;16.40;;;9.70;;
22030;SDS011;11179;52.106;21.024;2023-09-12T10:21:30;14.03;;;9.93;;
22030;SDS011;11179;52.106;21.024;2023-09-12T10:23:55;14.00;;;9.13;;
22030;SDS011;11179;52.106;21.024;2023-09-12T10:26:25;17.00;;;10.50;;
22030;SDS011;11179;52.106;21.024;2023-09-12T10:28:54;29.40;;;10.43;;
22030;SDS011;11179;52.106;21.024;2023-09-12T10:31:30;23.93;;;11.50;;
22030;SDS011;11179;52.106;21.024;2023-09-12T10:34:00;17.50;;;10.57;;
22030;SDS011;11179;52.106;21.024;2023-09-12T10:36:40;22.47;;;10.60;;
22030;SDS011;11179;52.106;21.024;2023-09-12T10:39:07;15.83;;;10.00;;
22030;SDS011;11179;52.106;21.024;2023-09-12T10:41:44;20.80;;;9.20;;
22030;SDS011;11179;52.106;21.024;2023-09-12T10:44:31;16.50;;;9.57;;
22030;SDS011;11179;52.106;21.024;2023-09-12T10:47:13;19.40;;;9.87;;
22030;SDS011;11179;52.106;21.024;2023-09-12T10:49:53;20.83;;;11.00;;
22030;SDS011;11179;52.106;21.024;2023-09-12T10:52:33;18.90;;;9.90;;
22030;SDS011;11179;52.106;21.024;2023-09-12T10:55:06;17.93;;;11.93;;
22030;SDS011;11179;52.106;21.024;2023-09-12T10:57:32;16.50;;;10.47;;
22030;SDS011;11179;52.106;21.024;2023-09-12T11:09:17;16.13;;;10.77;;
22030;SDS011;11179;52.106;21.024;2023-09-12T11:11:47;16.70;;;11.10;;
22030;SDS011;11179;52.106;21.024;2023-09-12T11:14:37;16.60;;;11.27;;
22030;SDS011;11179;52.106;21.024;2023-09-12T11:17:43;17.83;;;10.37;;
22030;SDS011;11179;52.106;21.024;2023-09-12T11:20:20;20.57;;;10.90;;
22030;SDS011;11179;52.106;21.024;2023-09-12T11:23:16;17.73;;;10.60;;
22030;SDS011;11179;52.106;21.024;2023-09-12T11:26:05;19.53;;;10.40;;
22030;SDS011;11179;52.106;21.024;2023-09-12T11:32:03;21.33;;;11.30;;
22030;SDS011;11179;52.106;21.024;2023-09-12T11:34:53;16.10;;;10.83;;
22030;SDS011;11179;52.106;21.024;2023-09-12T11:37:23;21.07;;;11.13;;
22030;SDS011;11179;52.106;21.024;2023-09-12T11:42:40;18.57;;;11.80;;
22030;SDS011;11179;52.106;21.024;2023-09-12T11:48:11;19.50;;;11.70;;
22030;SDS011;11179;52.106;21.024;2023-09-12T11:51:00;19.60;;;11.80;;
22030;SDS011;11179;52.106;21.024;2023-09-12T11:53:38;17.90;;;11.10;;
22030;SDS011;11179;52.106;21.024;2023-09-12T11:56:06;20.87;;;11.30;;
22030;SDS011;11179;52.106;21.024;2023-09-12T11:58:35;19.40;;;11.13;;
22030;SDS011;11179;52.106;21.024;2023-09-12T12:01:01;22.70;;;11.17;;
22030;SDS011;11179;52.106;21.024;2023-09-12T12:03:28;17.50;;;10.30;;
22030;SDS011;11179;52.106;21.024;2023-09-12T12:08:41;15.50;;;10.17;;
22030;SDS011;11179;52.106;21.024;2023-09-12T12:11:34;15.63;;;10.70;;
22030;SDS011;11179;52.106;21.024;2023-09-12T12:14:10;17.73;;;10.93;;
22030;SDS011;11179;52.106;21.024;2023-09-12T12:16:43;18.60;;;11.70;;
22030;SDS011;11179;52.106;21.024;2023-09-12T12:19:29;17.50;;;11.40;;
22030;SDS011;11179;52.106;21.024;2023-09-12T12:21:58;17.87;;;10.30;;
22030;SDS011;11179;52.106;21.024;2023-09-12T12:24:35;18.73;;;12.00;;
22030;SDS011;11179;52.106;21.024;2023-09-12T12:27:13;20.03;;;10.87;;
22030;SDS011;11179;52.106;21.024;2023-09-12T12:29:48;17.27;;;11.13;;
22030;SDS011;11179;52.106;21.024;2023-09-12T12:32:26;16.40;;;11.03;;
22030;SDS011;11179;52.106;21.024;2023-09-12T12:34:55;24.13;;;11.90;;
22030;SDS011;11179;52.106;21.024;2023-09-12T12:37:28;23.97;;;12.07;;
22030;SDS011;11179;52.106;21.024;2023-09-12T12:39:58;24.43;;;12.60;;
22030;SDS011;11179;52.106;21.024;2023-09-12T12:42:32;15.53;;;10.80;;
22030;SDS011;11179;52.106;21.024;2023-09-12T12:44:59;18.10;;;11.60;;
22030;SDS011;11179;52.106;21.024;2023-09-12T12:47:24;17.23;;;11.10;;
22030;SDS011;11179;52.106;21.024;2023-09-12T12:49:50;19.33;;;12.00;;
22030;SDS011;11179;52.106;21.024;2023-09-12T12:52:21;24.27;;;13.20;;
22030;SDS011;11179;52.106;21.024;2023-09-12T12:54:48;17.37;;;11.63;;
22030;SDS011;11179;52.106;21.024;2023-09-12T12:57:18;31.67;;;11.87;;
22030;SDS011;11179;52.106;21.024;2023-09-12T12:59:52;24.50;;;11.80;;
22030;SDS011;11179;52.106;21.024;2023-09-12T13:02:23;18.67;;;12.10;;
22030;SDS011;11179;52.106;21.024;2023-09-12T13:04:56;16.77;;;11.50;;
22030;SDS011;11179;52.106;21.024;2023-09-12T13:07:22;16.33;;;10.80;;
22030;SDS011;11179;52.106;21.024;2023-09-12T13:09:50;16.70;;;11.23;;
22030;SDS011;11179;52.106;21.024;2023-09-12T13:12:16;17.53;;;10.57;;
22030;SDS011;11179;52.106;21.024;2023-09-12T13:14:43;16.13;;;10.77;;
22030;SDS011;11179;52.106;21.024;2023-09-12T13:17:14;18.27;;;12.27;;
22030;SDS011;11179;52.106;21.024;2023-09-12T13:19:53;20.40;;;11.97;;
22030;SDS011;11179;52.106;21.024;2023-09-12T13:22:22;24.13;;;11.73;;
22030;SDS011;11179;52.106;21.024;2023-09-12T13:24:48;18.67;;;12.13;;
22030;SDS011;11179;52.106;21.024;2023-09-12T13:27:27;19.73;;;12.00;;
22030;SDS011;11179;52.106;21.024;2023-09-12T13:29:58;19.60;;;11.47;;
22030;SDS011;11179;52.106;21.024;2023-09-12T13:32:24;17.03;;;11.50;;
22030;SDS011;11179;52.106;21.024;2023-09-12T13:34:50;22.63;;;11.67;;
22030;SDS011;11179;52.106;21.024;2023-09-12T13:37:19;18.60;;;11.70;;
22030;SDS011;11179;52.106;21.024;2023-09-12T13:39:46;21.60;;;11.50;;
22030;SDS011;11179;52.106;21.024;2023-09-12T13:42:14;18.70;;;12.30;;
22030;SDS011;11179;52.106;21.024;2023-09-12T13:44:54;21.13;;;11.60;;
22030;SDS011;11179;52.106;21.024;2023-09-12T13:47:26;19.50;;;11.90;;
22030;SDS011;11179;52.106;21.024;2023-09-12T13:49:52;18.13;;;10.97;;
22030;SDS011;11179;52.106;21.024;2023-09-12T13:52:21;22.50;;;11.37;;
22030;SDS011;11179;52.106;21.024;2023-09-12T13:54:48;22.70;;;11.90;;
22030;SDS011;11179;52.106;21.024;2023-09-12T13:57:17;17.50;;;11.57;;
22030;SDS011;11179;52.106;21.024;2023-09-12T13:59:56;15.37;;;10.67;;
22030;SDS011;11179;52.106;21.024;2023-09-12T14:02:22;23.67;;;11.73;;
22030;SDS011;11179;52.106;21.024;2023-09-12T14:04:51;23.20;;;11.37;;
22030;SDS011;11179;52.106;21.024;2023-09-12T14:07:24;17.33;;;11.87;;
22030;SDS011;11179;52.106;21.024;2023-09-12T14:09:52;20.80;;;11.27;;
22030;SDS011;11179;52.106;21.024;2023-09-12T14:12:22;20.10;;;11.53;;
22030;SDS011;11179;52.106;21.024;2023-09-12T14:14:52;17.60;;;10.43;;
22030;SDS011;11179;52.106;21.024;2023-09-12T14:17:20;21.03;;;11.73;;
22030;SDS011;11179;52.106;21.024;2023-09-12T14:19:45;18.67;;;11.90;;
22030;SDS011;11179;52.106;21.024;2023-09-12T14:22:11;19.70;;;11.73;;
22030;SDS011;11179;52.106;21.024;2023-09-12T14:24:43;19.33;;;11.10;;
22030;SDS011;11179;52.106;21.024;2023-09-12T14:27:11;20.77;;;10.90;;
22030;SDS011;11179;52.106;21.024;2023-09-12T14:30:00;18.70;;;10.30;;
22030;SDS011;11179;52.106;21.024;2023-09-12T14:32:29;17.37;;;10.57;;
22030;SDS011;11179;52.106;21.024;2023-09-12T14:35:26;17.83;;;11.03;;
22030;SDS011;11179;52.106;21.024;2023-09-12T14:37:55;18.13;;;12.20;;
22030;SDS011;11179;52.106;21.024;2023-09-12T14:40:24;18.67;;;11.67;;
22030;SDS011;11179;52.106;21.024;2023-09-12T14:42:55;16.10;;;10.40;;
22030;SDS011;11179;52.106;21.024;2023-09-12T14:45:21;37.07;;;13.30;;
22030;SDS011;11179;52.106;21.024;2023-09-12T14:47:48;25.30;;;11.70;;
22030;SDS011;11179;52.106;21.024;2023-09-12T14:50:14;31.80;;;12.63;;
22030;SDS011;11179;52.106;21.024;2023-09-12T14:52:39;21.50;;;11.07;;
22030;SDS011;11179;52.106;21.024;2023-09-12T14:55:06;30.23;;;11.23;;
22030;SDS011;11179;52.106;21.024;2023-09-12T14:57:33;35.77;;;11.13;;
22030;SDS011;11179;52.106;21.024;2023-09-12T14:59:59;26.97;;;12.13;;
22030;SDS011;11179;52.106;21.024;2023-09-12T15:02:25;23.30;;;11.60;;
22030;SDS011;11179;52.106;21.024;2023-09-12T15:04:56;25.77;;;12.07;;
22030;SDS011;11179;52.106;21.024;2023-09-12T15:07:25;25.90;;;11.27;;
22030;SDS011;11179;52.106;21.024;2023-09-12T15:09:52;24.83;;;11.40;;
22030;SDS011;11179;52.106;21.024;2023-09-12T15:12:17;19.30;;;11.70;;
22030;SDS011;11179;52.106;21.024;2023-09-12T15:14:43;48.33;;;13.40;;
22030;SDS011;11179;52.106;21.024;2023-09-12T15:17:08;28.37;;;11.00;;
22030;SDS011;11179;52.106;21.024;2023-09-12T15:19:34;18.10;;;11.80;;
22030;SDS011;11179;52.106;21.024;2023-09-12T15:22:06;45.70;;;12.70;;
22030;SDS011;11179;52.106;21.024;2023-09-12T15:24:35;21.07;;;11.70;;
22030;SDS011;11179;52.106;21.024;2023-09-12T15:27:13;19.50;;;11.10;;
22030;SDS011;11179;52.106;21.024;2023-09-12T15:29:40;29.17;;;10.87;;
22030;SDS011;11179;52.106;21.024;2023-09-12T15:32:09;19.30;;;11.07;;
22030;SDS011;11179;52.106;21.024;2023-09-12T15:34:35;20.93;;;11.00;;
22030;SDS011;11179;52.106;21.024;2023-09-12T15:37:16;18.10;;;12.20;;
22030;SDS011;11179;52.106;21.024;2023-09-12T15:39:47;20.77;;;12.10;;
22030;SDS011;11179;52.106;21.024;2023-09-12T15:42:17;24.10;;;12.87;;
22030;SDS011;11179;52.106;21.024;2023-09-12T15:44:43;17.87;;;11.73;;
22030;SDS011;11179;52.106;21.024;2023-09-12T15:47:11;20.10;;;10.50;;
22030;SDS011;11179;52.106;21.024;2023-09-12T15:49:45;21.63;;;10.83;;
22030;SDS011;11179;52.106;21.024;2023-09-12T15:52:13;22.33;;;11.70;;
22030;SDS011;11179;52.106;21.024;2023-09-12T15:54:41;23.10;;;11.10;;
22030;SDS011;11179;52.106;21.024;2023-09-12T15:57:06;21.10;;;12.10;;
22030;SDS011;11179;52.106;21.024;2023-09-12T15:59:31;25.00;;;12.93;;
22030;SDS011;11179;52.106;21.024;2023-09-12T16:01:57;24.90;;;11.57;;
22030;SDS011;11179;52.106;21.024;2023-09-12T16:04:23;38.73;;;11.80;;
22030;SDS011;11179;52.106;21.024;2023-09-12T16:06:49;32.00;;;11.63;;
22030;SDS011;11179;52.106;21.024;2023-09-12T16:09:15;26.20;;;12.80;;
22030;SDS011;11179;52.106;21.024;2023-09-12T16:11:40;45.77;;;14.07;;
22030;SDS011;11179;52.106;21.024;2023-09-12T16:14:05;33.37;;;12.73;;
22030;SDS011;11179;52.106;21.024;2023-09-12T16:16:30;49.33;;;14.00;;
22030;SDS011;11179;52.106;21.024;2023-09-12T16:18:56;30.70;;;12.97;;
22030;SDS011;11179;52.106;21.024;2023-09-12T16:21:21;27.90;;;12.33;;
22030;SDS011;11179;52.106;21.024;2023-09-12T16:23:48;39.70;;;13.23;;
22030;SDS011;11179;52.106;21.024;2023-09-12T16:26:17;32.97;;;14.27;;
22030;SDS011;11179;52.106;21.024;2023-09-12T16:28:42;25.93;;;12.90;;
22030;SDS011;11179;52.106;21.024;2023-09-12T16:31:07;21.13;;;13.50;;
22030;SDS011;11179;52.106;21.024;2023-09-12T16:33:33;25.40;;;12.70;;
22030;SDS011;11179;52.106;21.024;2023-09-12T16:35:59;20.60;;;11.70;;
22030;SDS011;11179;52.106;21.024;2023-09-12T16:38:25;21.67;;;13.07;;
22030;SDS011;11179;52.106;21.024;2023-09-12T16:40:51;23.37;;;13.20;;
22030;SDS011;11179;52.106;21.024;2023-09-12T16:43:17;24.33;;;12.43;;
22030;SDS011;11179;52.106;21.024;2023-09-12T16:45:42;22.07;;;12.53;;
22030;SDS011;11179;52.106;21.024;2023-09-12T16:48:07;24.00;;;13.83;;
22030;SDS011;11179;52.106;21.024;2023-09-12T16:50:33;25.17;;;14.30;;
22030;SDS011;11179;52.106;21.024;2023-09-12T16:52:58;21.83;;;13.50;;
22030;SDS011;11179;52.106;21.024;2023-09-12T16:55:23;21.03;;;13.63;;
22030;SDS011;11179;52.106;21.024;2023-09-12T16:57:51;23.40;;;13.50;;